createdAt,value
2022-10-23T00:01:25.857Z,100.00
2022-10-23T00:03:58.395Z,100.00
2022-10-23T00:06:29.262Z,100.00
2022-10-23T00:08:58.242Z,100.00
2022-10-23T00:11:29.023Z,100.00
2022-10-23T00:13:59.048Z,100.00
2022-10-23T00:16:28.014Z,100.00
2022-10-23T00:18:58.835Z,100.00
2022-10-23T00:21:28.658Z,100.00
2022-10-23T00:23:59.525Z,100.00
2022-10-23T00:26:29.128Z,100.00
2022-10-23T00:28:57.972Z,100.00
2022-10-23T00:31:26.720Z,100.00
2022-10-23T00:33:55.404Z,100.00
2022-10-23T00:36:24.091Z,100.00
2022-10-23T00:38:52.650Z,100.00
2022-10-23T00:41:24.031Z,100.00
2022-10-23T00:44:08.136Z,100.00
2022-10-23T00:46:38.462Z,100.00
2022-10-23T00:49:08.333Z,100.00
2022-10-23T00:51:40.838Z,100.00
2022-10-23T00:54:23.550Z,100.00
2022-10-23T00:56:53.865Z,100.00
2022-10-23T00:59:22.323Z,100.00
2022-10-23T01:01:51.307Z,100.00
2022-10-23T01:04:20.574Z,100.00
2022-10-23T01:06:56.341Z,100.00
2022-10-23T01:09:33.413Z,100.00
2022-10-23T01:12:07.881Z,100.00
2022-10-23T01:14:39.714Z,100.00
2022-10-23T01:17:11.727Z,100.00
2022-10-23T01:19:49.053Z,100.00
2022-10-23T01:22:37.535Z,100.00
2022-10-23T01:25:11.340Z,100.00
2022-10-23T01:27:43.074Z,100.00
2022-10-23T01:30:15.281Z,100.00
2022-10-23T01:32:47.579Z,100.00
2022-10-23T01:35:22.197Z,100.00
2022-10-23T01:37:54.372Z,100.00
2022-10-23T01:40:25.639Z,100.00
2022-10-23T01:42:56.784Z,100.00
2022-10-23T01:45:30.614Z,100.00
2022-10-23T01:47:58.245Z,100.00
2022-10-23T01:50:27.372Z,100.00
2022-10-23T01:52:56.003Z,100.00
2022-10-23T01:55:25.459Z,100.00
2022-10-23T01:57:54.339Z,100.00
2022-10-23T02:00:22.890Z,100.00
2022-10-23T02:02:52.153Z,100.00
2022-10-23T02:05:23.175Z,100.00
2022-10-23T02:07:52.337Z,100.00
2022-10-23T02:10:21.473Z,100.00
2022-10-23T02:12:55.361Z,100.00
2022-10-23T02:15:25.486Z,100.00
2022-10-23T02:18:02.584Z,100.00
2022-10-23T02:20:37.658Z,100.00
2022-10-23T02:23:14.895Z,100.00
2022-10-23T02:25:47.575Z,100.00
2022-10-23T02:28:19.642Z,100.00
2022-10-23T02:30:49.569Z,100.00
2022-10-23T02:33:18.567Z,100.00
2022-10-23T02:35:47.340Z,100.00
2022-10-23T02:38:32.142Z,100.00
2022-10-23T02:41:13.427Z,100.00
2022-10-23T02:43:51.142Z,100.00
2022-10-23T02:46:23.747Z,100.00
2022-10-23T02:48:56.946Z,100.00
2022-10-23T02:51:31.481Z,100.00
2022-10-23T02:54:05.260Z,100.00
2022-10-23T02:56:39.257Z,100.00
2022-10-23T02:59:11.905Z,100.00
2022-10-23T03:01:49.588Z,100.00
2022-10-23T03:04:19.332Z,100.00
2022-10-23T03:06:48.285Z,100.00
2022-10-23T03:09:16.713Z,100.00
2022-10-23T03:11:45.488Z,100.00
2022-10-23T03:14:14.528Z,100.00
2022-10-23T03:16:42.917Z,100.00
2022-10-23T03:21:45.803Z,100.00
2022-10-23T03:24:14.598Z,100.00
2022-10-23T03:26:45.814Z,100.00
2022-10-23T03:29:14.478Z,100.00
2022-10-23T03:31:43.384Z,100.00
2022-10-23T03:34:13.180Z,100.00
2022-10-23T03:36:42.331Z,100.00
2022-10-23T03:39:11.251Z,100.00
2022-10-23T03:41:40.317Z,99.97
2022-10-23T03:44:09.366Z,100.00
2022-10-23T03:46:37.955Z,99.99
2022-10-23T03:49:06.568Z,100.00
2022-10-23T03:51:36.363Z,100.00
2022-10-23T03:54:07.743Z,100.00
2022-10-23T03:56:36.168Z,100.00
2022-10-23T03:59:04.887Z,99.97
2022-10-23T04:01:33.816Z,99.94
2022-10-23T04:04:02.498Z,99.89
2022-10-23T04:06:31.046Z,99.92
2022-10-23T04:08:59.744Z,99.96
2022-10-23T04:11:28.175Z,99.84
2022-10-23T04:13:56.484Z,99.81
2022-10-23T04:16:25.807Z,99.88
2022-10-23T04:18:54.195Z,99.95
2022-10-23T04:21:22.722Z,99.94
2022-10-23T04:23:51.251Z,99.96
2022-10-23T04:26:19.581Z,99.99
2022-10-23T04:28:47.959Z,99.92
2022-10-23T04:31:16.876Z,99.97
2022-10-23T04:33:45.228Z,99.97
2022-10-23T04:36:13.652Z,99.89
2022-10-23T04:38:42.395Z,99.82
2022-10-23T04:41:10.660Z,99.68
2022-10-23T04:43:39.310Z,99.62
2022-10-23T04:46:08.078Z,99.40
2022-10-23T04:48:36.481Z,99.21
2022-10-23T04:51:06.167Z,99.11
2022-10-23T04:53:34.880Z,98.91
2022-10-23T04:56:03.305Z,98.75
2022-10-23T04:58:31.834Z,98.82
2022-10-23T05:01:00.279Z,98.70
2022-10-23T05:03:29.810Z,98.62
2022-10-23T05:05:58.483Z,98.68
2022-10-23T05:08:27.000Z,98.67
2022-10-23T05:10:55.348Z,98.67
2022-10-23T05:13:25.205Z,98.56
2022-10-23T05:15:54.371Z,98.48
2022-10-23T05:18:26.118Z,98.50
2022-10-23T05:20:59.431Z,98.39
2022-10-23T05:23:28.807Z,98.33
2022-10-23T05:25:57.442Z,98.22
2022-10-23T05:28:26.083Z,98.25
2022-10-23T05:30:54.825Z,98.23
2022-10-23T05:33:23.322Z,98.19
2022-10-23T05:35:51.840Z,98.29
2022-10-23T05:38:20.220Z,98.41
2022-10-23T05:40:48.663Z,98.71
2022-10-23T05:43:17.283Z,98.72
2022-10-23T05:45:45.705Z,98.76
2022-10-23T05:48:30.085Z,98.64
2022-10-23T05:51:06.956Z,98.72
2022-10-23T05:53:38.691Z,98.71
2022-10-23T05:56:10.233Z,98.69
2022-10-23T05:58:38.789Z,98.72
2022-10-23T06:01:08.586Z,99.09
2022-10-23T06:03:38.026Z,98.90
2022-10-23T06:06:07.694Z,98.96
2022-10-23T06:08:36.340Z,98.97
2022-10-23T06:11:10.664Z,99.09
2022-10-23T06:13:39.631Z,99.06
2022-10-23T06:16:14.574Z,99.26
2022-10-23T06:18:46.887Z,98.88
2022-10-23T06:21:16.026Z,99.00
2022-10-23T06:23:45.724Z,98.72
2022-10-23T06:26:16.091Z,98.93
2022-10-23T06:28:44.807Z,98.80
2022-10-23T06:31:15.627Z,98.64
2022-10-23T06:33:43.953Z,98.66
2022-10-23T06:36:12.480Z,98.55
2022-10-23T06:38:41.291Z,98.29
2022-10-23T06:41:13.904Z,98.15
2022-10-23T06:43:42.729Z,98.28
2022-10-23T06:46:11.886Z,98.21
2022-10-23T06:48:42.038Z,98.23
2022-10-23T06:51:12.868Z,98.05
2022-10-23T06:53:41.325Z,98.13
2022-10-23T06:56:10.849Z,98.16
2022-10-23T06:58:39.944Z,97.97
2022-10-23T07:01:09.752Z,98.03
2022-10-23T07:03:38.393Z,97.86
2022-10-23T07:06:09.436Z,97.95
2022-10-23T07:08:38.284Z,97.84
2022-10-23T07:11:08.823Z,97.91
2022-10-23T07:13:38.040Z,97.67
2022-10-23T07:16:16.113Z,97.66
2022-10-23T07:18:45.077Z,97.56
2022-10-23T07:21:14.006Z,97.52
2022-10-23T07:23:43.231Z,97.57
2022-10-23T07:26:16.437Z,97.42
2022-10-23T07:28:46.926Z,97.20
2022-10-23T07:31:15.544Z,97.00
2022-10-23T07:33:43.982Z,97.10
2022-10-23T07:36:12.914Z,97.09
2022-10-23T07:38:41.347Z,97.00
2022-10-23T07:41:12.312Z,96.88
2022-10-23T07:43:41.194Z,96.84
2022-10-23T07:46:09.503Z,96.75
2022-10-23T07:48:38.317Z,96.64
2022-10-23T07:51:10.276Z,96.57
2022-10-23T07:53:38.848Z,96.70
2022-10-23T07:56:13.907Z,96.64
2022-10-23T07:58:42.545Z,96.69
2022-10-23T08:01:18.177Z,96.47
2022-10-23T08:03:47.207Z,96.50
2022-10-23T08:06:18.339Z,96.60
2022-10-23T08:08:46.810Z,96.45
2022-10-23T08:11:19.878Z,96.66
2022-10-23T08:13:48.435Z,96.78
2022-10-23T08:16:17.211Z,96.66
2022-10-23T08:18:45.549Z,96.40
2022-10-23T08:21:13.975Z,96.24
2022-10-23T08:23:42.651Z,96.19
2022-10-23T08:26:11.756Z,96.00
2022-10-23T08:28:40.129Z,95.95
2022-10-23T08:31:11.008Z,95.61
2022-10-23T08:33:39.625Z,94.88
2022-10-23T08:36:18.418Z,95.12
2022-10-23T08:38:47.064Z,95.15
2022-10-23T08:41:24.765Z,94.82
2022-10-23T08:43:56.944Z,94.72
2022-10-23T08:46:36.057Z,94.70
2022-10-23T08:49:16.625Z,94.58
2022-10-23T08:51:47.830Z,94.70
2022-10-23T08:54:18.151Z,94.45
2022-10-23T08:56:50.251Z,94.55
2022-10-23T08:59:24.517Z,94.65
2022-10-23T09:01:58.124Z,94.49
2022-10-23T09:04:26.975Z,94.29
2022-10-23T09:07:02.541Z,94.15
2022-10-23T09:09:46.507Z,94.29
2022-10-23T09:12:17.089Z,94.14
2022-10-23T09:15:00.519Z,94.21
2022-10-23T09:17:30.616Z,94.08
2022-10-23T09:20:07.559Z,94.01
2022-10-23T09:22:35.979Z,94.14
2022-10-23T09:25:10.524Z,94.04
2022-10-23T09:27:39.318Z,94.38
2022-10-23T09:30:10.313Z,94.39
2022-10-23T09:32:39.260Z,94.49
2022-10-23T09:35:22.743Z,94.12
2022-10-23T09:37:52.925Z,94.11
2022-10-23T09:40:28.715Z,94.20
2022-10-23T09:42:59.121Z,93.84
2022-10-23T09:45:30.212Z,93.67
2022-10-23T09:48:12.831Z,93.67
2022-10-23T09:50:49.219Z,93.54
2022-10-23T09:53:30.182Z,93.30
2022-10-23T09:56:01.572Z,93.17
2022-10-23T09:58:34.725Z,92.89
2022-10-23T10:01:04.393Z,92.67
2022-10-23T10:03:33.150Z,92.70
2022-10-23T10:06:02.726Z,92.82
2022-10-23T10:08:41.183Z,92.77
2022-10-23T10:11:15.002Z,92.62
2022-10-23T10:14:03.582Z,92.43
2022-10-23T10:16:41.222Z,92.28
2022-10-23T10:19:17.440Z,91.24
2022-10-23T10:21:51.846Z,91.27
2022-10-23T10:24:24.956Z,91.33
2022-10-23T10:26:58.383Z,91.34
2022-10-23T10:29:40.740Z,90.86
2022-10-23T10:32:19.392Z,90.57
2022-10-23T10:34:53.715Z,90.27
2022-10-23T10:37:29.530Z,90.18
2022-10-23T10:40:03.771Z,90.11
2022-10-23T10:42:50.102Z,89.79
2022-10-23T10:45:27.902Z,89.64
2022-10-23T10:48:15.409Z,89.49
2022-10-23T10:50:46.925Z,89.58
2022-10-23T10:53:22.954Z,89.59
2022-10-23T10:55:53.376Z,89.54
2022-10-23T10:58:26.678Z,89.71
2022-10-23T11:00:58.957Z,89.56
2022-10-23T11:03:41.715Z,89.26
2022-10-23T11:06:17.607Z,89.14
2022-10-23T11:09:19.659Z,89.25
2022-10-23T11:11:51.376Z,89.44
2022-10-23T11:14:23.613Z,88.72
2022-10-23T11:16:53.991Z,88.11
2022-10-23T11:19:26.386Z,87.30
2022-10-23T11:22:06.986Z,86.46
2022-10-23T11:24:51.507Z,86.51
2022-10-23T11:27:51.435Z,86.96
2022-10-23T11:30:25.255Z,86.52
2022-10-23T11:33:31.707Z,86.15
2022-10-23T11:36:08.650Z,85.74
2022-10-23T11:38:38.891Z,86.17
2022-10-23T11:41:21.012Z,86.50
2022-10-23T11:43:54.789Z,86.87
2022-10-23T11:46:34.890Z,86.36
2022-10-23T11:49:05.894Z,86.56
2022-10-23T11:51:36.144Z,86.84
2022-10-23T11:54:25.853Z,86.39
2022-10-23T11:57:10.748Z,86.59
2022-10-23T11:59:51.325Z,86.16
2022-10-23T12:02:27.794Z,86.00
2022-10-23T12:04:56.820Z,86.15
2022-10-23T12:07:27.058Z,86.04
2022-10-23T12:09:59.153Z,85.71
2022-10-23T12:12:33.864Z,85.72
2022-10-23T12:15:21.628Z,85.25
2022-10-23T12:17:50.766Z,85.74
2022-10-23T12:20:37.552Z,85.57
2022-10-23T12:23:31.671Z,85.51
2022-10-23T12:26:20.433Z,85.82
2022-10-23T12:28:54.426Z,85.23
2022-10-23T12:31:31.784Z,84.70
2022-10-23T12:34:07.351Z,84.99
2022-10-23T12:36:49.118Z,84.60
2022-10-23T12:39:28.309Z,84.27
2022-10-23T12:41:59.010Z,83.39
2022-10-23T12:44:28.019Z,82.94
2022-10-23T12:46:58.486Z,83.20
2022-10-23T12:49:28.294Z,83.69
2022-10-23T12:51:58.961Z,83.91
2022-10-23T12:54:28.413Z,83.59
2022-10-23T12:56:57.097Z,83.51
2022-10-23T12:59:27.526Z,83.28
2022-10-23T13:01:56.622Z,82.87
2022-10-23T13:04:29.717Z,82.79
2022-10-23T13:06:59.785Z,82.59
2022-10-23T13:09:32.002Z,82.38
2022-10-23T13:12:02.618Z,82.70
2022-10-23T13:14:33.443Z,82.98
2022-10-23T13:17:03.877Z,82.62
2022-10-23T13:19:34.062Z,82.80
2022-10-23T13:22:05.338Z,83.06
2022-10-23T13:24:33.735Z,82.95
2022-10-23T13:27:02.489Z,83.22
2022-10-23T13:29:33.530Z,83.24
2022-10-23T13:32:11.327Z,82.89
2022-10-23T13:34:40.139Z,82.80
2022-10-23T13:37:25.757Z,82.74
2022-10-23T13:40:07.085Z,83.07
2022-10-23T13:42:35.670Z,83.31
2022-10-23T13:45:05.848Z,83.48
2022-10-23T13:47:34.127Z,83.80
2022-10-23T13:50:02.561Z,83.89
2022-10-23T13:52:31.694Z,83.98
2022-10-23T13:55:00.202Z,84.10
2022-10-23T13:57:28.695Z,84.22
2022-10-23T13:59:57.299Z,84.52
2022-10-23T14:02:25.907Z,84.22
2022-10-23T14:04:55.188Z,84.56
2022-10-23T14:07:24.140Z,84.61
2022-10-23T14:09:52.602Z,84.64
2022-10-23T14:12:20.992Z,85.00
2022-10-23T14:14:52.263Z,84.99
2022-10-23T14:17:21.335Z,84.93
2022-10-23T14:19:50.413Z,85.05
2022-10-23T14:22:19.493Z,85.08
2022-10-23T14:24:47.861Z,85.16
2022-10-23T14:27:16.314Z,85.13
2022-10-23T14:29:45.329Z,85.22
2022-10-23T14:32:13.922Z,85.13
2022-10-23T14:34:43.831Z,85.24
2022-10-23T14:37:12.653Z,85.07
2022-10-23T14:39:40.987Z,85.14
2022-10-23T14:42:09.336Z,85.29
2022-10-23T14:47:07.350Z,84.82
2022-10-23T14:49:35.802Z,84.88
2022-10-23T14:52:05.316Z,84.88
2022-10-23T14:54:34.676Z,85.06
2022-10-23T14:57:03.190Z,85.07
2022-10-23T14:59:32.045Z,85.26
2022-10-23T15:02:00.472Z,85.12
2022-10-23T15:04:28.844Z,85.09
2022-10-23T15:06:57.230Z,85.13
2022-10-23T15:09:25.808Z,85.33
2022-10-23T15:11:54.161Z,85.24
2022-10-23T15:14:22.623Z,85.31
2022-10-23T15:16:51.482Z,85.34
2022-10-23T15:19:20.086Z,85.06
2022-10-23T15:21:48.648Z,84.95
2022-10-23T15:24:17.879Z,85.00
2022-10-23T15:26:46.314Z,85.08
2022-10-23T15:29:15.518Z,85.13
2022-10-23T15:31:53.954Z,85.31
2022-10-23T15:34:23.959Z,85.18
2022-10-23T15:36:53.074Z,85.16
2022-10-23T15:39:23.106Z,84.48
2022-10-23T15:41:53.962Z,84.39
2022-10-23T15:44:26.167Z,84.25
2022-10-23T15:46:56.387Z,84.38
2022-10-23T15:49:25.792Z,84.26
2022-10-23T15:51:54.412Z,84.30
2022-10-23T15:54:23.590Z,84.38
2022-10-23T15:56:53.488Z,84.54
2022-10-23T15:59:23.654Z,84.68
2022-10-23T16:01:52.536Z,84.59
2022-10-23T16:04:21.041Z,84.71
2022-10-23T16:06:49.919Z,84.79
2022-10-23T16:09:18.430Z,84.73
2022-10-23T16:11:46.879Z,84.89
2022-10-23T16:14:16.817Z,84.95
2022-10-23T16:16:45.328Z,84.90
2022-10-23T16:19:14.123Z,84.92
2022-10-23T16:21:42.819Z,84.55
2022-10-23T16:24:11.967Z,84.72
2022-10-23T16:26:40.450Z,84.33
2022-10-23T16:29:10.776Z,84.44
2022-10-23T16:31:39.186Z,84.50
2022-10-23T16:34:07.687Z,84.45
2022-10-23T16:36:38.498Z,84.33
2022-10-23T16:39:07.896Z,84.58
2022-10-23T16:41:36.259Z,84.49
2022-10-23T16:44:05.168Z,84.67
2022-10-23T16:46:34.878Z,84.67
2022-10-23T16:49:03.731Z,84.67
2022-10-23T16:51:32.935Z,84.82
2022-10-23T16:54:02.243Z,84.92
2022-10-23T16:56:31.536Z,84.79
2022-10-23T16:59:00.367Z,84.93
2022-10-23T17:01:30.937Z,84.99
2022-10-23T17:03:59.864Z,85.09
2022-10-23T17:06:30.195Z,85.26
2022-10-23T17:08:59.883Z,85.24
2022-10-23T17:11:29.831Z,85.40
2022-10-23T17:14:00.415Z,85.51
2022-10-23T17:16:31.279Z,85.48
2022-10-23T17:19:00.258Z,85.69
2022-10-23T17:21:32.937Z,85.71
2022-10-23T17:26:30.435Z,85.68
2022-10-23T17:28:59.696Z,85.58
2022-10-23T17:31:29.870Z,85.77
2022-10-23T17:34:01.641Z,85.95
2022-10-23T17:36:32.028Z,86.01
2022-10-23T17:39:00.690Z,86.26
2022-10-23T17:41:29.231Z,86.30
2022-10-23T17:43:58.660Z,86.15
2022-10-23T17:46:28.707Z,86.44
2022-10-23T17:48:59.508Z,86.44
2022-10-23T17:51:30.095Z,86.38
2022-10-23T17:54:03.577Z,86.22
2022-10-23T17:56:33.652Z,86.41
2022-10-23T17:59:04.591Z,86.43
2022-10-23T18:01:33.900Z,86.51
2022-10-23T18:04:04.254Z,86.49
2022-10-23T18:06:34.144Z,86.43
2022-10-23T18:09:04.000Z,86.34
2022-10-23T18:11:33.829Z,86.37
2022-10-23T18:14:03.376Z,86.35
2022-10-23T18:16:32.095Z,86.42
2022-10-23T18:19:00.706Z,86.42
2022-10-23T18:21:29.505Z,86.21
2022-10-23T18:24:00.297Z,86.30
2022-10-23T18:26:30.854Z,86.16
2022-10-23T18:29:01.438Z,85.94
2022-10-23T18:31:30.073Z,86.07
2022-10-23T18:34:00.896Z,86.15
2022-10-23T18:36:32.095Z,86.11
2022-10-23T18:39:01.232Z,85.88
2022-10-23T18:41:34.391Z,86.12
2022-10-23T18:44:03.767Z,86.14
2022-10-23T18:46:32.170Z,86.05
2022-10-23T18:49:00.829Z,86.01
2022-10-23T18:51:31.858Z,86.07
2022-10-23T18:54:02.894Z,86.16
2022-10-23T18:56:33.483Z,86.27
2022-10-23T18:59:04.317Z,86.44
2022-10-23T19:01:33.787Z,86.30
2022-10-23T19:04:03.599Z,86.32
2022-10-23T19:06:32.968Z,86.48
2022-10-23T19:09:01.999Z,86.59
2022-10-23T19:11:30.334Z,86.53
2022-10-23T19:13:58.779Z,86.52
2022-10-23T19:16:29.735Z,86.61
2022-10-23T19:19:00.087Z,86.87
2022-10-23T19:21:32.228Z,86.73
2022-10-23T19:24:03.908Z,86.98
2022-10-23T19:26:33.057Z,87.15
2022-10-23T19:29:01.915Z,87.11
2022-10-23T19:31:30.685Z,87.03
2022-10-23T19:33:59.510Z,87.09
2022-10-23T19:36:27.959Z,87.03
2022-10-23T19:38:56.376Z,87.18
2022-10-23T19:41:24.913Z,87.36
2022-10-23T19:43:53.294Z,87.45
2022-10-23T19:46:22.038Z,87.41
2022-10-23T19:48:50.897Z,87.55
2022-10-23T19:51:19.443Z,87.42
2022-10-23T19:53:48.010Z,87.31
2022-10-23T19:56:16.738Z,87.50
2022-10-23T19:58:45.243Z,87.41
2022-10-23T20:01:15.591Z,87.54
2022-10-23T20:03:45.130Z,87.66
2022-10-23T20:06:18.039Z,87.78
2022-10-23T20:08:47.352Z,87.40
2022-10-23T20:11:20.384Z,87.55
2022-10-23T20:13:50.235Z,87.74
2022-10-23T20:16:20.127Z,87.75
2022-10-23T20:18:48.992Z,88.00
2022-10-23T20:21:19.434Z,87.81
2022-10-23T20:23:48.888Z,87.90
2022-10-23T20:26:21.830Z,87.97
2022-10-23T20:28:53.962Z,88.03
2022-10-23T20:31:24.609Z,88.43
2022-10-23T20:33:53.632Z,88.63
2022-10-23T20:36:28.643Z,88.66
2022-10-23T20:38:58.210Z,88.66
2022-10-23T20:41:28.371Z,88.65
2022-10-23T20:43:56.881Z,88.69
2022-10-23T20:46:26.418Z,88.70
2022-10-23T20:48:54.858Z,89.06
2022-10-23T20:51:24.351Z,89.36
2022-10-23T20:53:54.166Z,89.41
2022-10-23T20:56:29.414Z,89.58
2022-10-23T20:58:58.078Z,89.76
2022-10-23T21:01:27.863Z,89.81
2022-10-23T21:03:58.843Z,90.20
2022-10-23T21:06:33.975Z,90.10
2022-10-23T21:11:40.131Z,90.29
2022-10-23T21:14:08.595Z,90.61
2022-10-23T21:16:40.190Z,90.41
2022-10-23T21:19:10.521Z,90.54
2022-10-23T21:21:39.368Z,90.75
2022-10-23T21:24:10.008Z,90.98
2022-10-23T21:26:38.530Z,90.95
2022-10-23T21:29:17.943Z,91.02
2022-10-23T21:31:53.557Z,91.20
2022-10-23T21:34:21.143Z,91.04
2022-10-23T21:39:38.605Z,91.58
2022-10-23T21:42:07.331Z,91.83
2022-10-23T21:44:35.832Z,91.71
2022-10-23T21:47:05.933Z,91.56
2022-10-23T21:49:34.722Z,91.86
2022-10-23T21:52:05.290Z,91.79
2022-10-23T21:54:34.493Z,91.77
2022-10-23T21:57:02.959Z,91.82
2022-10-23T21:59:34.800Z,92.15
2022-10-23T22:02:04.434Z,92.43
2022-10-23T22:04:33.773Z,92.53
2022-10-23T22:07:02.890Z,92.40
2022-10-23T22:09:32.482Z,92.63
2022-10-23T22:12:01.108Z,92.24
2022-10-23T22:14:29.462Z,92.17
2022-10-23T22:16:58.096Z,92.56
2022-10-23T22:19:26.751Z,92.87
2022-10-23T22:21:55.074Z,92.81
2022-10-23T22:24:23.466Z,92.87
2022-10-23T22:26:55.821Z,93.29
2022-10-23T22:29:26.257Z,93.21
2022-10-23T22:31:55.198Z,93.41
2022-10-23T22:34:47.828Z,93.06
2022-10-23T22:37:14.079Z,93.53
2022-10-23T22:39:42.907Z,93.17
2022-10-23T22:42:11.274Z,93.87
2022-10-23T22:44:40.124Z,93.76
2022-10-23T22:47:08.443Z,93.71
2022-10-23T22:49:37.819Z,94.23
2022-10-23T22:52:06.783Z,94.50
2022-10-23T22:54:35.155Z,94.81
2022-10-23T22:57:03.652Z,94.63
2022-10-23T22:59:32.361Z,94.84
2022-10-23T23:02:00.751Z,95.08
2022-10-23T23:04:38.259Z,95.32
2022-10-23T23:07:08.684Z,95.40
2022-10-23T23:09:38.982Z,95.10
2022-10-23T23:12:09.577Z,95.54
2022-10-23T23:14:37.950Z,95.27
2022-10-23T23:17:07.091Z,95.69
2022-10-23T23:19:35.984Z,95.75
2022-10-23T23:22:04.569Z,95.47
2022-10-23T23:24:33.336Z,95.60
2022-10-23T23:27:02.075Z,95.60
2022-10-23T23:29:30.474Z,95.75
2022-10-23T23:31:59.021Z,95.62
2022-10-23T23:34:28.263Z,95.85
2022-10-23T23:36:56.707Z,95.78
2022-10-23T23:39:27.744Z,96.02
2022-10-23T23:41:56.244Z,95.96
2022-10-23T23:44:24.640Z,96.30
2022-10-23T23:46:52.932Z,96.51
2022-10-23T23:49:21.539Z,96.31
2022-10-23T23:51:49.816Z,96.25
2022-10-23T23:54:18.735Z,96.34
2022-10-23T23:56:47.318Z,96.35
2022-10-23T23:59:15.692Z,96.57
